Date,TemperatureHighF,TemperatureAvgF,TemperatureLowF,DewpointHighF,DewpointAvgF,DewpointLowF,HumidityHigh,HumidityAvg,HumidityLow,PressureMaxIn,PressureMinIn,WindSpeedMaxMPH,WindSpeedAvgMPH,GustSpeedMaxMPH,PrecipitationSumIn
2013-5-1,74,65,56,58,55,52,93,73,53,29.98,29.89,3,1,8,0.00
2013-5-2,70,63,58,59,55,51,83,74,62,29.98,29.92,4,1,21,0.00
2013-5-3,66,60,58,55,54,51,85,78,60,29.92,29.76,4,2,24,0.00
2013-5-4,59,55,52,53,50,45,100,86,70,29.76,29.65,6,2,16,1.25
2013-5-5,58,54,49,56,52,48,99,96,85,29.64,29.53,4,1,11,1.29
2013-5-6,54,50,44,50,47,44,100,92,81,29.69,29.57,2,0,9,0.06
2013-5-7,66,56,47,51,48,45,100,78,46,29.76,29.65,8,2,14,0.00
2013-5-8,70,60,50,56,53,49,97,80,50,29.85,29.73,6,1,14,0.00
2013-5-9,76,63,50,58,54,49,100,75,39,29.91,29.83,5,1,11,0.00
2013-5-10,60,55,54,56,53,52,96,95,88,29.90,29.83,1,0,2,0.00
2013-5-11,73,61,54,64,58,53,100,91,65,29.85,29.67,8,1,17,0.33
2013-5-12,60,55,46,57,44,31,100,70,34,29.89,29.74,8,3,18,0.01
2013-5-13,62,51,38,42,35,28,94,60,29,29.99,29.88,9,2,21,0.00
2013-5-14,45,40,40,40,38,37,91,90,77,29.99,29.97,0,0,2,0.00
2013-5-15,81,58,40,56,50,37,95,81,32,29.99,29.81,5,1,11,0.00
2013-5-16,78,66,56,62,58,54,95,77,47,29.89,29.79,4,0,11,0.00
2013-5-17,79,68,58,64,60,57,96,77,52,29.90,29.83,3,0,6,0.00
2013-5-18,70,65,62,67,64,59,100,96,89,29.88,29.82,2,0,4,0.33
2013-5-19,69,65,61,69,65,61,100,99,99,29.90,29.77,3,0,9,0.66
2013-5-20,80,68,58,70,63,58,100,85,60,29.91,29.81,6,1,9,0.01
2013-5-21,83,71,63,70,66,63,100,87,56,29.86,29.72,4,0,13,0.20
2013-5-22,78,66,63,69,64,62,99,93,63,29.82,29.66,2,0,11,0.00
2013-5-23,78,70,63,68,60,54,100,72,48,29.97,29.71,8,2,24,0.02
2013-5-24,67,62,51,56,49,40,85,64,39,30.19,29.96,11,4,21,0.00
2013-5-25,74,59,43,48,42,28,94,60,19,30.27,30.16,7,2,14,0.00
2013-5-26,74,61,48,54,50,45,91,68,39,30.24,30.14,5,1,11,0.00
2013-5-27,81,67,52,61,56,50,94,71,42,30.20,30.09,4,0,8,0.00
2013-5-28,82,71,63,63,60,56,88,69,41,30.18,30.09,4,0,9,0.00
2013-5-29,82,71,65,64,61,59,83,72,49,30.14,29.84,3,1,8,0.00
2013-5-30,80,71,64,66,63,60,92,76,58,29.96,29.85,4,1,11,0.00
2013-5-31,79,72,66,66,64,62,91,76,61,29.92,29.81,4,1,8,0.00